sensor_id;sensor_type;location;lat;lon;timestamp;temperature;humidity
21425;DHT22;10873;51.132;16.848;2023-01-29T00:02:25;23.70;41.70
21425;DHT22;10873;51.132;16.848;2023-01-29T00:04:51;23.70;41.70
21425;DHT22;10873;51.132;16.848;2023-01-29T00:07:18;23.70;41.80
21425;DHT22;10873;51.132;16.848;2023-01-29T00:09:44;23.70;41.70
21425;DHT22;10873;51.132;16.848;2023-01-29T00:12:10;23.60;41.70
21425;DHT22;10873;51.132;16.848;2023-01-29T00:14:36;23.60;41.70
21425;DHT22;10873;51.132;16.848;2023-01-29T00:17:04;23.60;41.70
21425;DHT22;10873;51.132;16.848;2023-01-29T00:19:29;23.60;41.70
21425;DHT22;10873;51.132;16.848;2023-01-29T00:21:56;23.60;41.80
21425;DHT22;10873;51.132;16.848;2023-01-29T00:24:22;23.60;41.90
21425;DHT22;10873;51.132;16.848;2023-01-29T00:26:48;23.60;41.80
21425;DHT22;10873;51.132;16.848;2023-01-29T00:29:15;23.70;41.90
21425;DHT22;10873;51.132;16.848;2023-01-29T00:31:43;23.70;41.90
21425;DHT22;10873;51.132;16.848;2023-01-29T00:34:11;23.70;41.90
21425;DHT22;10873;51.132;16.848;2023-01-29T00:36:37;23.70;41.90
21425;DHT22;10873;51.132;16.848;2023-01-29T00:39:03;23.70;41.80
21425;DHT22;10873;51.132;16.848;2023-01-29T00:41:36;23.70;41.80
21425;DHT22;10873;51.132;16.848;2023-01-29T00:44:20;23.70;41.80
21425;DHT22;10873;51.132;16.848;2023-01-29T00:47:06;23.80;41.80
21425;DHT22;10873;51.132;16.848;2023-01-29T00:49:51;23.80;41.70
21425;DHT22;10873;51.132;16.848;2023-01-29T00:52:18;23.70;41.60
21425;DHT22;10873;51.132;16.848;2023-01-29T00:54:49;23.80;41.60
21425;DHT22;10873;51.132;16.848;2023-01-29T00:57:16;23.80;41.60
21425;DHT22;10873;51.132;16.848;2023-01-29T00:59:42;23.80;41.60
21425;DHT22;10873;51.132;16.848;2023-01-29T01:02:08;23.80;41.60
21425;DHT22;10873;51.132;16.848;2023-01-29T01:04:54;23.80;41.60
21425;DHT22;10873;51.132;16.848;2023-01-29T01:07:20;23.70;41.50
21425;DHT22;10873;51.132;16.848;2023-01-29T01:09:46;23.70;41.50
21425;DHT22;10873;51.132;16.848;2023-01-29T01:12:31;23.80;41.50
21425;DHT22;10873;51.132;16.848;2023-01-29T01:14:57;23.70;41.50
21425;DHT22;10873;51.132;16.848;2023-01-29T01:17:23;23.70;41.50
21425;DHT22;10873;51.132;16.848;2023-01-29T01:19:49;23.70;41.40
21425;DHT22;10873;51.132;16.848;2023-01-29T01:22:17;23.70;41.40
21425;DHT22;10873;51.132;16.848;2023-01-29T01:24:43;23.70;41.40
21425;DHT22;10873;51.132;16.848;2023-01-29T01:27:09;23.70;41.40
21425;DHT22;10873;51.132;16.848;2023-01-29T01:29:35;23.70;41.30
21425;DHT22;10873;51.132;16.848;2023-01-29T01:32:02;23.70;41.30
21425;DHT22;10873;51.132;16.848;2023-01-29T01:34:27;23.70;41.30
21425;DHT22;10873;51.132;16.848;2023-01-29T01:36:54;23.70;41.40
21425;DHT22;10873;51.132;16.848;2023-01-29T01:39:24;23.70;41.50
21425;DHT22;10873;51.132;16.848;2023-01-29T01:41:51;23.70;41.50
21425;DHT22;10873;51.132;16.848;2023-01-29T01:44:52;23.60;41.50
21425;DHT22;10873;51.132;16.848;2023-01-29T01:47:23;23.60;41.50
21425;DHT22;10873;51.132;16.848;2023-01-29T01:49:50;23.60;41.50
21425;DHT22;10873;51.132;16.848;2023-01-29T01:52:19;23.60;41.40
21425;DHT22;10873;51.132;16.848;2023-01-29T01:54:47;23.60;41.40
21425;DHT22;10873;51.132;16.848;2023-01-29T01:57:16;23.60;41.40
21425;DHT22;10873;51.132;16.848;2023-01-29T01:59:45;23.60;41.40
21425;DHT22;10873;51.132;16.848;2023-01-29T02:02:12;23.60;41.40
21425;DHT22;10873;51.132;16.848;2023-01-29T02:04:58;23.60;41.40
21425;DHT22;10873;51.132;16.848;2023-01-29T02:07:45;23.60;41.40
21425;DHT22;10873;51.132;16.848;2023-01-29T02:10:40;23.60;41.50
21425;DHT22;10873;51.132;16.848;2023-01-29T02:13:07;23.60;41.50
21425;DHT22;10873;51.132;16.848;2023-01-29T02:15:33;23.60;41.50
21425;DHT22;10873;51.132;16.848;2023-01-29T02:17:59;23.60;41.50
21425;DHT22;10873;51.132;16.848;2023-01-29T02:20:27;23.60;41.40
21425;DHT22;10873;51.132;16.848;2023-01-29T02:23:27;23.60;41.40
21425;DHT22;10873;51.132;16.848;2023-01-29T02:26:14;23.60;41.40
21425;DHT22;10873;51.132;16.848;2023-01-29T02:28:50;23.60;41.30
21425;DHT22;10873;51.132;16.848;2023-01-29T02:31:26;23.60;41.40
21425;DHT22;10873;51.132;16.848;2023-01-29T02:34:04;23.60;41.50
21425;DHT22;10873;51.132;16.848;2023-01-29T02:36:35;23.60;41.50
21425;DHT22;10873;51.132;16.848;2023-01-29T02:39:09;23.60;41.50
21425;DHT22;10873;51.132;16.848;2023-01-29T02:41:42;23.60;41.50
21425;DHT22;10873;51.132;16.848;2023-01-29T02:44:17;23.60;41.40
21425;DHT22;10873;51.132;16.848;2023-01-29T02:46:51;23.60;41.40
21425;DHT22;10873;51.132;16.848;2023-01-29T02:49:22;23.60;41.30
21425;DHT22;10873;51.132;16.848;2023-01-29T02:51:57;23.60;41.30
21425;DHT22;10873;51.132;16.848;2023-01-29T02:54:30;23.60;41.30
21425;DHT22;10873;51.132;16.848;2023-01-29T02:57:02;23.60;41.40
21425;DHT22;10873;51.132;16.848;2023-01-29T02:59:34;23.60;41.40
21425;DHT22;10873;51.132;16.848;2023-01-29T03:02:04;23.60;41.50
21425;DHT22;10873;51.132;16.848;2023-01-29T03:04:38;23.60;41.50
21425;DHT22;10873;51.132;16.848;2023-01-29T03:07:09;23.60;41.50
21425;DHT22;10873;51.132;16.848;2023-01-29T03:09:58;23.60;41.40
21425;DHT22;10873;51.132;16.848;2023-01-29T03:12:26;23.70;41.30
21425;DHT22;10873;51.132;16.848;2023-01-29T03:15:02;23.70;41.40
21425;DHT22;10873;51.132;16.848;2023-01-29T03:17:49;23.60;41.20
21425;DHT22;10873;51.132;16.848;2023-01-29T03:20:18;23.60;41.20
21425;DHT22;10873;51.132;16.848;2023-01-29T03:22:49;23.60;41.30
21425;DHT22;10873;51.132;16.848;2023-01-29T03:25:18;23.60;42.00
21425;DHT22;10873;51.132;16.848;2023-01-29T03:28:05;23.60;41.50
21425;DHT22;10873;51.132;16.848;2023-01-29T03:30:54;23.60;41.50
21425;DHT22;10873;51.132;16.848;2023-01-29T03:33:42;23.60;41.50
21425;DHT22;10873;51.132;16.848;2023-01-29T03:36:13;23.60;41.40
21425;DHT22;10873;51.132;16.848;2023-01-29T03:38:40;23.60;41.30
21425;DHT22;10873;51.132;16.848;2023-01-29T03:41:12;23.60;41.30
21425;DHT22;10873;51.132;16.848;2023-01-29T03:43:46;23.60;41.30
21425;DHT22;10873;51.132;16.848;2023-01-29T03:46:22;23.60;41.30
21425;DHT22;10873;51.132;16.848;2023-01-29T03:48:57;23.60;41.30
21425;DHT22;10873;51.132;16.848;2023-01-29T03:51:29;23.60;41.40
21425;DHT22;10873;51.132;16.848;2023-01-29T03:54:04;23.60;41.40
21425;DHT22;10873;51.132;16.848;2023-01-29T03:56:38;23.60;41.50
21425;DHT22;10873;51.132;16.848;2023-01-29T03:59:17;23.60;41.50
21425;DHT22;10873;51.132;16.848;2023-01-29T04:01:49;23.60;41.40
21425;DHT22;10873;51.132;16.848;2023-01-29T04:04:18;23.60;41.40
21425;DHT22;10873;51.132;16.848;2023-01-29T04:06:49;23.70;41.40
21425;DHT22;10873;51.132;16.848;2023-01-29T04:09:18;23.70;41.40
21425;DHT22;10873;51.132;16.848;2023-01-29T04:11:51;23.60;41.40
21425;DHT22;10873;51.132;16.848;2023-01-29T04:14:19;23.60;41.40
21425;DHT22;10873;51.132;16.848;2023-01-29T04:16:50;23.60;41.40
21425;DHT22;10873;51.132;16.848;2023-01-29T04:19:17;23.60;41.50
21425;DHT22;10873;51.132;16.848;2023-01-29T04:21:44;23.60;41.50
21425;DHT22;10873;51.132;16.848;2023-01-29T04:24:12;23.70;42.20
21425;DHT22;10873;51.132;16.848;2023-01-29T04:26:53;23.60;41.50
21425;DHT22;10873;51.132;16.848;2023-01-29T04:29:28;23.70;41.50
21425;DHT22;10873;51.132;16.848;2023-01-29T04:32:02;23.70;41.40
21425;DHT22;10873;51.132;16.848;2023-01-29T04:34:35;23.70;41.40
21425;DHT22;10873;51.132;16.848;2023-01-29T04:37:11;23.70;41.50
21425;DHT22;10873;51.132;16.848;2023-01-29T04:39:45;23.70;41.30
21425;DHT22;10873;51.132;16.848;2023-01-29T04:42:21;23.70;41.40
21425;DHT22;10873;51.132;16.848;2023-01-29T04:44:53;23.70;41.50
21425;DHT22;10873;51.132;16.848;2023-01-29T04:47:29;23.70;41.50
21425;DHT22;10873;51.132;16.848;2023-01-29T04:50:02;23.70;41.50
21425;DHT22;10873;51.132;16.848;2023-01-29T04:52:38;23.70;41.50
21425;DHT22;10873;51.132;16.848;2023-01-29T04:55:15;23.70;41.40
21425;DHT22;10873;51.132;16.848;2023-01-29T04:57:45;23.70;41.40
21425;DHT22;10873;51.132;16.848;2023-01-29T05:00:15;23.70;41.40
21425;DHT22;10873;51.132;16.848;2023-01-29T05:02:45;23.70;41.40
21425;DHT22;10873;51.132;16.848;2023-01-29T05:05:13;23.70;41.30
21425;DHT22;10873;51.132;16.848;2023-01-29T05:07:41;23.70;41.30
21425;DHT22;10873;51.132;16.848;2023-01-29T05:10:09;23.70;41.30
21425;DHT22;10873;51.132;16.848;2023-01-29T05:12:37;23.70;41.40
21425;DHT22;10873;51.132;16.848;2023-01-29T05:15:10;23.70;41.40
21425;DHT22;10873;51.132;16.848;2023-01-29T05:17:37;23.70;41.40
21425;DHT22;10873;51.132;16.848;2023-01-29T05:20:06;23.70;41.40
21425;DHT22;10873;51.132;16.848;2023-01-29T05:22:36;23.70;41.50
21425;DHT22;10873;51.132;16.848;2023-01-29T05:25:03;23.70;41.50
21425;DHT22;10873;51.132;16.848;2023-01-29T05:27:33;23.70;41.50
21425;DHT22;10873;51.132;16.848;2023-01-29T05:30:18;23.70;41.60
21425;DHT22;10873;51.132;16.848;2023-01-29T05:32:44;23.60;41.60
21425;DHT22;10873;51.132;16.848;2023-01-29T05:35:11;23.70;41.60
21425;DHT22;10873;51.132;16.848;2023-01-29T05:37:38;23.70;41.60
21425;DHT22;10873;51.132;16.848;2023-01-29T05:40:04;23.60;41.70
21425;DHT22;10873;51.132;16.848;2023-01-29T05:42:33;23.70;41.70
21425;DHT22;10873;51.132;16.848;2023-01-29T05:44:59;23.60;41.70
21425;DHT22;10873;51.132;16.848;2023-01-29T05:47:25;23.60;41.80
21425;DHT22;10873;51.132;16.848;2023-01-29T05:49:51;23.70;41.90
21425;DHT22;10873;51.132;16.848;2023-01-29T05:52:19;23.70;41.80
21425;DHT22;10873;51.132;16.848;2023-01-29T05:54:45;23.70;41.90
21425;DHT22;10873;51.132;16.848;2023-01-29T05:57:11;23.70;41.70
21425;DHT22;10873;51.132;16.848;2023-01-29T05:59:37;23.70;41.70
21425;DHT22;10873;51.132;16.848;2023-01-29T06:02:03;23.70;41.70
21425;DHT22;10873;51.132;16.848;2023-01-29T06:04:29;23.70;41.70
21425;DHT22;10873;51.132;16.848;2023-01-29T06:06:55;23.70;41.70
21425;DHT22;10873;51.132;16.848;2023-01-29T06:09:22;23.70;41.60
21425;DHT22;10873;51.132;16.848;2023-01-29T06:11:48;23.70;41.60
21425;DHT22;10873;51.132;16.848;2023-01-29T06:14:14;23.70;41.60
21425;DHT22;10873;51.132;16.848;2023-01-29T06:16:40;23.70;41.60
21425;DHT22;10873;51.132;16.848;2023-01-29T06:19:06;23.70;41.70
21425;DHT22;10873;51.132;16.848;2023-01-29T06:21:32;23.70;41.70
21425;DHT22;10873;51.132;16.848;2023-01-29T06:23:58;23.70;41.70
21425;DHT22;10873;51.132;16.848;2023-01-29T06:26:26;23.70;41.70
21425;DHT22;10873;51.132;16.848;2023-01-29T06:28:52;23.70;41.60
21425;DHT22;10873;51.132;16.848;2023-01-29T06:31:18;23.70;41.60
21425;DHT22;10873;51.132;16.848;2023-01-29T06:33:44;23.70;41.60
21425;DHT22;10873;51.132;16.848;2023-01-29T06:36:10;23.80;41.60
21425;DHT22;10873;51.132;16.848;2023-01-29T06:38:36;23.80;41.60
21425;DHT22;10873;51.132;16.848;2023-01-29T06:41:08;23.70;41.60
21425;DHT22;10873;51.132;16.848;2023-01-29T06:43:35;23.80;41.60
21425;DHT22;10873;51.132;16.848;2023-01-29T06:46:01;23.70;41.50
21425;DHT22;10873;51.132;16.848;2023-01-29T06:48:27;23.80;41.50
21425;DHT22;10873;51.132;16.848;2023-01-29T06:50:53;23.70;41.40
21425;DHT22;10873;51.132;16.848;2023-01-29T06:53:20;23.80;41.40
21425;DHT22;10873;51.132;16.848;2023-01-29T06:55:50;23.80;41.40
21425;DHT22;10873;51.132;16.848;2023-01-29T06:58:16;23.70;41.30
21425;DHT22;10873;51.132;16.848;2023-01-29T07:00:44;23.70;41.40
21425;DHT22;10873;51.132;16.848;2023-01-29T07:03:10;23.70;41.40
21425;DHT22;10873;51.132;16.848;2023-01-29T07:05:38;23.80;41.50
21425;DHT22;10873;51.132;16.848;2023-01-29T07:08:04;23.70;41.40
21425;DHT22;10873;51.132;16.848;2023-01-29T07:10:30;23.80;41.40
21425;DHT22;10873;51.132;16.848;2023-01-29T07:12:58;23.80;41.40
21425;DHT22;10873;51.132;16.848;2023-01-29T07:15:24;23.80;41.40
21425;DHT22;10873;51.132;16.848;2023-01-29T07:17:59;23.70;41.40
21425;DHT22;10873;51.132;16.848;2023-01-29T07:20:28;23.70;41.40
21425;DHT22;10873;51.132;16.848;2023-01-29T07:22:55;23.70;41.40
21425;DHT22;10873;51.132;16.848;2023-01-29T07:25:22;23.80;41.50
21425;DHT22;10873;51.132;16.848;2023-01-29T07:27:48;23.70;41.50
21425;DHT22;10873;51.132;16.848;2023-01-29T07:30:15;23.70;41.60
21425;DHT22;10873;51.132;16.848;2023-01-29T07:32:41;23.70;41.60
21425;DHT22;10873;51.132;16.848;2023-01-29T07:35:09;23.70;41.60
21425;DHT22;10873;51.132;16.848;2023-01-29T07:37:35;23.70;41.60
21425;DHT22;10873;51.132;16.848;2023-01-29T07:40:01;23.70;41.60
21425;DHT22;10873;51.132;16.848;2023-01-29T07:42:29;23.70;41.60
21425;DHT22;10873;51.132;16.848;2023-01-29T07:44:56;23.70;41.60
21425;DHT22;10873;51.132;16.848;2023-01-29T07:47:22;23.80;42.70
21425;DHT22;10873;51.132;16.848;2023-01-29T07:49:48;23.80;43.00
21425;DHT22;10873;51.132;16.848;2023-01-29T07:52:15;23.70;42.90
21425;DHT22;10873;51.132;16.848;2023-01-29T07:54:41;23.70;42.80
21425;DHT22;10873;51.132;16.848;2023-01-29T07:57:07;23.70;42.80
21425;DHT22;10873;51.132;16.848;2023-01-29T07:59:33;23.70;42.80
21425;DHT22;10873;51.132;16.848;2023-01-29T08:01:59;23.70;42.80
21425;DHT22;10873;51.132;16.848;2023-01-29T08:04:25;23.70;42.80
21425;DHT22;10873;51.132;16.848;2023-01-29T08:06:51;23.80;42.80
21425;DHT22;10873;51.132;16.848;2023-01-29T08:09:19;23.80;42.80
21425;DHT22;10873;51.132;16.848;2023-01-29T08:11:44;23.80;42.70
21425;DHT22;10873;51.132;16.848;2023-01-29T08:14:11;23.80;42.80
21425;DHT22;10873;51.132;16.848;2023-01-29T08:16:36;23.80;42.80
21425;DHT22;10873;51.132;16.848;2023-01-29T08:19:03;23.80;42.80
21425;DHT22;10873;51.132;16.848;2023-01-29T08:21:29;23.80;42.80
21425;DHT22;10873;51.132;16.848;2023-01-29T08:23:55;23.80;42.80
21425;DHT22;10873;51.132;16.848;2023-01-29T08:26:22;23.90;42.90
21425;DHT22;10873;51.132;16.848;2023-01-29T08:28:48;23.80;42.90
21425;DHT22;10873;51.132;16.848;2023-01-29T08:31:15;23.80;43.50
21425;DHT22;10873;51.132;16.848;2023-01-29T08:33:42;23.80;43.00
21425;DHT22;10873;51.132;16.848;2023-01-29T08:36:08;23.80;43.00
21425;DHT22;10873;51.132;16.848;2023-01-29T08:38:34;23.90;43.00
21425;DHT22;10873;51.132;16.848;2023-01-29T08:41:01;23.80;43.00
21425;DHT22;10873;51.132;16.848;2023-01-29T08:43:28;23.90;43.10
21425;DHT22;10873;51.132;16.848;2023-01-29T08:45:55;23.80;43.10
21425;DHT22;10873;51.132;16.848;2023-01-29T08:48:20;23.90;43.10
21425;DHT22;10873;51.132;16.848;2023-01-29T08:50:47;23.90;43.00
21425;DHT22;10873;51.132;16.848;2023-01-29T08:53:12;23.90;43.00
21425;DHT22;10873;51.132;16.848;2023-01-29T08:55:39;23.90;43.10
21425;DHT22;10873;51.132;16.848;2023-01-29T08:58:06;23.90;43.20
21425;DHT22;10873;51.132;16.848;2023-01-29T09:00:35;23.90;43.20
21425;DHT22;10873;51.132;16.848;2023-01-29T09:03:01;23.90;43.20
21425;DHT22;10873;51.132;16.848;2023-01-29T09:05:28;23.90;43.10
21425;DHT22;10873;51.132;16.848;2023-01-29T09:07:55;23.90;43.20
21425;DHT22;10873;51.132;16.848;2023-01-29T09:10:23;23.90;43.20
21425;DHT22;10873;51.132;16.848;2023-01-29T09:12:49;23.90;43.20
21425;DHT22;10873;51.132;16.848;2023-01-29T09:15:15;23.90;43.40
21425;DHT22;10873;51.132;16.848;2023-01-29T09:17:43;23.90;43.40
21425;DHT22;10873;51.132;16.848;2023-01-29T09:20:10;23.90;43.50
21425;DHT22;10873;51.132;16.848;2023-01-29T09:22:36;23.80;43.50
21425;DHT22;10873;51.132;16.848;2023-01-29T09:25:02;23.90;44.80
21425;DHT22;10873;51.132;16.848;2023-01-29T09:27:28;23.90;46.00
21425;DHT22;10873;51.132;16.848;2023-01-29T09:29:55;23.90;46.10
21425;DHT22;10873;51.132;16.848;2023-01-29T09:32:21;23.80;45.50
21425;DHT22;10873;51.132;16.848;2023-01-29T09:34:49;23.80;45.60
21425;DHT22;10873;51.132;16.848;2023-01-29T09:37:15;23.90;46.00
21425;DHT22;10873;51.132;16.848;2023-01-29T09:39:44;23.80;46.40
21425;DHT22;10873;51.132;16.848;2023-01-29T09:42:15;23.80;46.80
21425;DHT22;10873;51.132;16.848;2023-01-29T09:44:52;23.80;47.20
21425;DHT22;10873;51.132;16.848;2023-01-29T09:47:22;23.90;47.90
21425;DHT22;10873;51.132;16.848;2023-01-29T09:49:54;23.90;48.50
21425;DHT22;10873;51.132;16.848;2023-01-29T09:52:24;24.20;51.80
21425;DHT22;10873;51.132;16.848;2023-01-29T09:54:58;24.40;53.00
21425;DHT22;10873;51.132;16.848;2023-01-29T09:57:33;24.80;53.60
21425;DHT22;10873;51.132;16.848;2023-01-29T10:00:03;25.20;53.70
21425;DHT22;10873;51.132;16.848;2023-01-29T10:02:52;25.70;53.60
21425;DHT22;10873;51.132;16.848;2023-01-29T10:05:40;26.20;53.30
21425;DHT22;10873;51.132;16.848;2023-01-29T10:11:22;27.10;52.40
21425;DHT22;10873;51.132;16.848;2023-01-29T10:13:56;27.60;51.90
21425;DHT22;10873;51.132;16.848;2023-01-29T10:16:35;28.00;51.40
21425;DHT22;10873;51.132;16.848;2023-01-29T10:19:29;28.30;50.60
21425;DHT22;10873;51.132;16.848;2023-01-29T10:22:28;28.70;49.90
21425;DHT22;10873;51.132;16.848;2023-01-29T10:25:03;29.10;49.20
21425;DHT22;10873;51.132;16.848;2023-01-29T10:27:32;29.40;48.60
21425;DHT22;10873;51.132;16.848;2023-01-29T10:30:00;29.60;45.30
21425;DHT22;10873;51.132;16.848;2023-01-29T10:32:27;29.70;42.70
21425;DHT22;10873;51.132;16.848;2023-01-29T10:34:57;29.70;41.90
21425;DHT22;10873;51.132;16.848;2023-01-29T10:37:35;29.60;41.10
21425;DHT22;10873;51.132;16.848;2023-01-29T10:40:15;29.60;40.60
21425;DHT22;10873;51.132;16.848;2023-01-29T10:42:46;29.50;40.20
21425;DHT22;10873;51.132;16.848;2023-01-29T10:45:20;29.50;39.40
21425;DHT22;10873;51.132;16.848;2023-01-29T10:48:04;29.50;39.10
21425;DHT22;10873;51.132;16.848;2023-01-29T10:50:44;29.50;38.70
21425;DHT22;10873;51.132;16.848;2023-01-29T10:53:31;29.40;38.60
21425;DHT22;10873;51.132;16.848;2023-01-29T10:56:09;29.20;42.70
21425;DHT22;10873;51.132;16.848;2023-01-29T10:58:44;28.70;43.70
21425;DHT22;10873;51.132;16.848;2023-01-29T11:01:13;28.30;43.10
21425;DHT22;10873;51.132;16.848;2023-01-29T11:03:39;27.90;42.10
21425;DHT22;10873;51.132;16.848;2023-01-29T11:06:12;27.60;40.70
21425;DHT22;10873;51.132;16.848;2023-01-29T11:08:48;27.20;39.60
21425;DHT22;10873;51.132;16.848;2023-01-29T11:11:17;27.00;38.30
21425;DHT22;10873;51.132;16.848;2023-01-29T11:13:49;26.70;37.30
21425;DHT22;10873;51.132;16.848;2023-01-29T11:16:17;26.50;37.40
21425;DHT22;10873;51.132;16.848;2023-01-29T11:18:55;26.20;37.20
21425;DHT22;10873;51.132;16.848;2023-01-29T11:21:22;26.00;37.70
21425;DHT22;10873;51.132;16.848;2023-01-29T11:24:03;25.90;39.70
21425;DHT22;10873;51.132;16.848;2023-01-29T11:26:34;25.80;42.80
21425;DHT22;10873;51.132;16.848;2023-01-29T11:29:01;25.70;43.80
21425;DHT22;10873;51.132;16.848;2023-01-29T11:31:35;25.50;42.10
21425;DHT22;10873;51.132;16.848;2023-01-29T11:34:04;25.30;41.40
21425;DHT22;10873;51.132;16.848;2023-01-29T11:36:34;25.10;41.00
21425;DHT22;10873;51.132;16.848;2023-01-29T11:39:13;25.00;41.90
21425;DHT22;10873;51.132;16.848;2023-01-29T11:41:45;25.20;41.00
21425;DHT22;10873;51.132;16.848;2023-01-29T11:44:20;25.40;40.60
21425;DHT22;10873;51.132;16.848;2023-01-29T11:46:46;25.60;40.80
21425;DHT22;10873;51.132;16.848;2023-01-29T11:49:22;25.80;41.50
21425;DHT22;10873;51.132;16.848;2023-01-29T11:51:51;25.90;42.60
21425;DHT22;10873;51.132;16.848;2023-01-29T11:54:24;26.10;43.50
21425;DHT22;10873;51.132;16.848;2023-01-29T11:56:52;26.20;43.10
21425;DHT22;10873;51.132;16.848;2023-01-29T11:59:30;26.30;43.50
21425;DHT22;10873;51.132;16.848;2023-01-29T12:02:20;26.50;43.50
21425;DHT22;10873;51.132;16.848;2023-01-29T12:04:47;26.60;45.00
21425;DHT22;10873;51.132;16.848;2023-01-29T12:07:14;26.70;43.20
21425;DHT22;10873;51.132;16.848;2023-01-29T12:09:48;26.80;43.70
21425;DHT22;10873;51.132;16.848;2023-01-29T12:12:17;26.90;42.60
21425;DHT22;10873;51.132;16.848;2023-01-29T12:15:05;26.90;41.40
21425;DHT22;10873;51.132;16.848;2023-01-29T12:17:37;26.90;42.50
21425;DHT22;10873;51.132;16.848;2023-01-29T12:20:09;26.90;42.70
21425;DHT22;10873;51.132;16.848;2023-01-29T12:22:41;26.90;41.60
21425;DHT22;10873;51.132;16.848;2023-01-29T12:25:20;26.90;42.10
21425;DHT22;10873;51.132;16.848;2023-01-29T12:27:52;26.90;41.90
21425;DHT22;10873;51.132;16.848;2023-01-29T12:30:25;26.90;41.80
21425;DHT22;10873;51.132;16.848;2023-01-29T12:32:55;27.00;41.50
21425;DHT22;10873;51.132;16.848;2023-01-29T12:35:26;27.00;42.90
21425;DHT22;10873;51.132;16.848;2023-01-29T12:37:57;27.20;44.10
21425;DHT22;10873;51.132;16.848;2023-01-29T12:40:30;27.50;44.70
21425;DHT22;10873;51.132;16.848;2023-01-29T12:43:01;27.70;45.00
21425;DHT22;10873;51.132;16.848;2023-01-29T12:45:30;28.10;45.50
21425;DHT22;10873;51.132;16.848;2023-01-29T12:48:00;28.40;45.50
21425;DHT22;10873;51.132;16.848;2023-01-29T12:50:29;28.70;45.70
21425;DHT22;10873;51.132;16.848;2023-01-29T12:52:59;28.90;47.90
21425;DHT22;10873;51.132;16.848;2023-01-29T12:55:32;28.90;48.90
21425;DHT22;10873;51.132;16.848;2023-01-29T12:58:00;28.80;49.20
21425;DHT22;10873;51.132;16.848;2023-01-29T13:00:30;28.60;49.60
21425;DHT22;10873;51.132;16.848;2023-01-29T13:03:00;28.40;49.60
21425;DHT22;10873;51.132;16.848;2023-01-29T13:05:32;28.30;49.80
21425;DHT22;10873;51.132;16.848;2023-01-29T13:08:03;28.10;49.40
21425;DHT22;10873;51.132;16.848;2023-01-29T13:10:34;28.00;49.10
21425;DHT22;10873;51.132;16.848;2023-01-29T13:13:04;27.80;48.50
21425;DHT22;10873;51.132;16.848;2023-01-29T13:15:34;27.70;48.00
21425;DHT22;10873;51.132;16.848;2023-01-29T13:18:16;27.60;47.50
21425;DHT22;10873;51.132;16.848;2023-01-29T13:20:45;27.40;46.60
21425;DHT22;10873;51.132;16.848;2023-01-29T13:23:18;27.30;46.70
21425;DHT22;10873;51.132;16.848;2023-01-29T13:25:49;27.20;46.30
21425;DHT22;10873;51.132;16.848;2023-01-29T13:28:22;27.10;45.80
21425;DHT22;10873;51.132;16.848;2023-01-29T13:31:08;27.00;45.70
21425;DHT22;10873;51.132;16.848;2023-01-29T13:33:36;26.90;45.30
21425;DHT22;10873;51.132;16.848;2023-01-29T13:36:03;26.90;45.00
21425;DHT22;10873;51.132;16.848;2023-01-29T13:38:31;26.70;43.30
21425;DHT22;10873;51.132;16.848;2023-01-29T13:41:04;26.60;43.40
21425;DHT22;10873;51.132;16.848;2023-01-29T13:43:34;26.60;43.70
21425;DHT22;10873;51.132;16.848;2023-01-29T13:46:07;26.60;43.70
21425;DHT22;10873;51.132;16.848;2023-01-29T13:48:40;26.50;43.60
21425;DHT22;10873;51.132;16.848;2023-01-29T13:51:10;26.50;43.40
21425;DHT22;10873;51.132;16.848;2023-01-29T13:53:41;26.40;43.40
21425;DHT22;10873;51.132;16.848;2023-01-29T13:56:40;26.40;43.30
21425;DHT22;10873;51.132;16.848;2023-01-29T13:59:20;26.30;43.10
21425;DHT22;10873;51.132;16.848;2023-01-29T14:02:21;26.30;43.00
21425;DHT22;10873;51.132;16.848;2023-01-29T14:04:47;26.30;42.90
21425;DHT22;10873;51.132;16.848;2023-01-29T14:07:48;26.20;42.80
21425;DHT22;10873;51.132;16.848;2023-01-29T14:10:18;26.20;42.90
21425;DHT22;10873;51.132;16.848;2023-01-29T14:12:50;26.10;42.80
21425;DHT22;10873;51.132;16.848;2023-01-29T14:15:31;26.10;42.90
21425;DHT22;10873;51.132;16.848;2023-01-29T14:18:17;26.10;42.80
21425;DHT22;10873;51.132;16.848;2023-01-29T14:21:04;26.00;42.90
21425;DHT22;10873;51.132;16.848;2023-01-29T14:23:40;26.00;42.90
21425;DHT22;10873;51.132;16.848;2023-01-29T14:26:29;26.00;42.90
21425;DHT22;10873;51.132;16.848;2023-01-29T14:29:02;26.00;43.00
21425;DHT22;10873;51.132;16.848;2023-01-29T14:31:31;26.00;43.10
21425;DHT22;10873;51.132;16.848;2023-01-29T14:34:01;25.90;43.10
21425;DHT22;10873;51.132;16.848;2023-01-29T14:36:28;25.80;43.00
21425;DHT22;10873;51.132;16.848;2023-01-29T14:39:03;25.80;43.10
21425;DHT22;10873;51.132;16.848;2023-01-29T14:41:31;25.80;43.90
21425;DHT22;10873;51.132;16.848;2023-01-29T14:47:03;25.80;43.40
21425;DHT22;10873;51.132;16.848;2023-01-29T14:49:50;25.80;43.40
21425;DHT22;10873;51.132;16.848;2023-01-29T14:52:18;25.70;43.40
21425;DHT22;10873;51.132;16.848;2023-01-29T14:54:47;25.70;43.30
21425;DHT22;10873;51.132;16.848;2023-01-29T14:57:15;25.70;43.40
21425;DHT22;10873;51.132;16.848;2023-01-29T14:59:48;25.70;43.50
21425;DHT22;10873;51.132;16.848;2023-01-29T15:02:19;25.60;43.60
21425;DHT22;10873;51.132;16.848;2023-01-29T15:04:48;25.60;43.50
21425;DHT22;10873;51.132;16.848;2023-01-29T15:07:24;25.60;43.50
21425;DHT22;10873;51.132;16.848;2023-01-29T15:09:57;25.60;44.20
21425;DHT22;10873;51.132;16.848;2023-01-29T15:12:27;25.50;43.50
21425;DHT22;10873;51.132;16.848;2023-01-29T15:15:02;25.50;43.60
21425;DHT22;10873;51.132;16.848;2023-01-29T15:17:33;25.50;43.70
21425;DHT22;10873;51.132;16.848;2023-01-29T15:20:27;25.40;43.70
21425;DHT22;10873;51.132;16.848;2023-01-29T15:22:53;25.40;43.70
21425;DHT22;10873;51.132;16.848;2023-01-29T15:25:20;25.40;43.80
21425;DHT22;10873;51.132;16.848;2023-01-29T15:27:46;25.40;43.80
21425;DHT22;10873;51.132;16.848;2023-01-29T15:30:15;25.40;43.70
21425;DHT22;10873;51.132;16.848;2023-01-29T15:32:43;25.40;43.70
21425;DHT22;10873;51.132;16.848;2023-01-29T15:35:23;25.30;43.60
21425;DHT22;10873;51.132;16.848;2023-01-29T15:37:58;25.30;43.60
21425;DHT22;10873;51.132;16.848;2023-01-29T15:40:24;25.30;43.60
21425;DHT22;10873;51.132;16.848;2023-01-29T15:42:51;25.30;43.60
21425;DHT22;10873;51.132;16.848;2023-01-29T15:45:22;25.30;43.70
21425;DHT22;10873;51.132;16.848;2023-01-29T15:47:50;25.20;43.60